Estación de Azapa medio
Ultimos registro cada 15 minutos 71
| N° | Estación | Fecha / Hora | Temperatura | Humedad | Lluvia | Velocidad | Dirección | Radiación | Presion |
| 71 | Azapa medio | 06-05-2026 17:30 | 22,2 | 50,2 | 0 | 0,5 | 58 | 44 | 970 |
| 70 | Azapa medio | 06-05-2026 17:15 | 22,5 | 47,9 | 0 | 0,8 | 65 | 59 | 970 |
| 69 | Azapa medio | 06-05-2026 17:00 | 23 | 46,9 | 0 | 1 | 62 | 88 | 969 |
| 68 | Azapa medio | 06-05-2026 16:45 | 23,6 | 46,1 | 0 | 1,4 | 59 | 95 | 969 |
| 67 | Azapa medio | 06-05-2026 16:30 | 24,8 | 46,5 | 0 | 1,2 | 70 | 174 | 969 |
| 66 | Azapa medio | 06-05-2026 16:15 | 25,4 | 43,7 | 0 | 1,1 | 75 | 247 | 969 |
| 65 | Azapa medio | 06-05-2026 16:00 | 25,9 | 41 | 0 | 0,5 | 22 | 295 | 969 |
| 64 | Azapa medio | 06-05-2026 15:45 | 25,4 | 40,2 | 0 | 1 | 70 | 227 | 969 |
| 63 | Azapa medio | 06-05-2026 15:30 | 25,2 | 37,7 | 0 | 0,9 | 311 | 377 | 969 |
| 62 | Azapa medio | 06-05-2026 15:15 | 23,6 | 39,6 | 0 | 1 | 47 | 364 | 969 |
| 61 | Azapa medio | 06-05-2026 15:00 | 23,4 | 46,5 | 0 | 1,6 | 50 | 238 | 970 |
| 60 | Azapa medio | 06-05-2026 14:45 | 23,6 | 47,5 | 0 | 1,6 | 51 | 260 | 970 |
| 59 | Azapa medio | 06-05-2026 14:30 | 24,2 | 46,3 | 0 | 1,2 | 49 | 198 | 970 |
| 58 | Azapa medio | 06-05-2026 14:15 | 25,3 | 45,8 | 0 | 0,8 | 53 | 201 | 970 |
| 57 | Azapa medio | 06-05-2026 14:00 | 26,2 | 43,1 | 0 | 0,8 | 50 | 390 | 970 |
| 56 | Azapa medio | 06-05-2026 13:45 | 26,2 | 41,8 | 0 | 1 | 44 | 519 | 970 |
| 55 | Azapa medio | 06-05-2026 13:30 | 26,2 | 42,5 | 0 | 1 | 40 | 529 | 970 |
| 54 | Azapa medio | 06-05-2026 13:15 | 26,9 | 41,4 | 0 | 0,6 | 47 | 460 | 970 |
| 53 | Azapa medio | 06-05-2026 13:00 | 26,9 | 42,1 | 0 | 0,3 | 37 | 450 | 970 |
| 52 | Azapa medio | 06-05-2026 12:45 | 26,9 | 41,2 | 0 | 0,4 | 28 | 536 | 971 |
| 51 | Azapa medio | 06-05-2026 12:30 | 26,8 | 41 | 0 | 1 | 41 | 527 | 971 |
| 50 | Azapa medio | 06-05-2026 12:15 | 26,6 | 41,7 | 0 | 0,5 | 39 | 522 | 971 |
| 49 | Azapa medio | 06-05-2026 12:00 | 26,4 | 41,3 | 0 | 0,9 | 42 | 517 | 972 |
| 48 | Azapa medio | 06-05-2026 11:45 | 25,9 | 40,3 | 0 | 0,7 | 40 | 509 | 972 |
| 47 | Azapa medio | 06-05-2026 11:30 | 25 | 42,4 | 0 | 1,1 | 45 | 487 | 972 |
| 46 | Azapa medio | 06-05-2026 11:15 | 24,7 | 42,5 | 0 | 1,1 | 43 | 466 | 972 |
| 45 | Azapa medio | 06-05-2026 11:00 | 24,3 | 41,6 | 0 | 1 | 37 | 438 | 972 |
| 44 | Azapa medio | 06-05-2026 10:45 | 24 | 43,3 | 0 | 1 | 40 | 315 | 972 |
| 43 | Azapa medio | 06-05-2026 10:30 | 23,2 | 45,5 | 0 | 1,5 | 39 | 320 | 972 |
| 42 | Azapa medio | 06-05-2026 10:15 | 22,6 | 47 | 0 | 1,2 | 39 | 188 | 972 |
| 41 | Azapa medio | 06-05-2026 10:00 | 22,1 | 49,1 | 0 | 1,7 | 37 | 203 | 972 |
| 40 | Azapa medio | 06-05-2026 09:45 | 22 | 49,5 | 0 | 1,6 | 38 | 233 | 972 |
| 39 | Azapa medio | 06-05-2026 09:30 | 21,5 | 49,2 | 0 | 0,9 | 37 | 255 | 972 |
| 38 | Azapa medio | 06-05-2026 09:15 | 20,6 | 52,1 | 0 | 0,5 | 35 | 238 | 972 |
| 37 | Azapa medio | 06-05-2026 09:00 | 20,1 | 53,6 | 0 | 0,1 | 37 | 150 | 972 |
| 36 | Azapa medio | 06-05-2026 08:45 | 19,3 | 56 | 0 | 0 | 35 | 111 | 972 |
| 35 | Azapa medio | 06-05-2026 08:30 | 17,7 | 55,9 | 0 | 0,3 | 28 | 158 | 972 |
| 34 | Azapa medio | 06-05-2026 08:15 | 15,7 | 63,9 | 0 | 0,3 | 20 | 90 | 972 |
| 33 | Azapa medio | 06-05-2026 08:00 | 14,2 | 69,6 | 0 | 0,4 | 20 | 49 | 972 |
| 32 | Azapa medio | 06-05-2026 07:45 | 13,1 | 76 | 0 | 0,1 | 19 | 29 | 972 |
| 31 | Azapa medio | 06-05-2026 07:30 | 12,7 | 76,9 | 0 | 0,3 | 19 | 13 | 971 |
| 30 | Azapa medio | 06-05-2026 07:15 | 12,6 | 76,8 | 0 | 0,2 | 19 | 5 | 971 |
| 29 | Azapa medio | 06-05-2026 07:00 | 12,7 | 76,3 | 0 | 0 | 19 | 1 | 971 |
| 28 | Azapa medio | 06-05-2026 06:45 | 12,9 | 75,8 | 0 | 0,3 | 19 | 0 | 971 |
| 27 | Azapa medio | 06-05-2026 06:30 | 13 | 75 | 0 | 0,1 | 19 | 0 | 971 |
| 26 | Azapa medio | 06-05-2026 06:15 | 13 | 76,4 | 0 | 0,2 | 19 | 0 | 970 |
| 25 | Azapa medio | 06-05-2026 06:00 | 13 | 76,8 | 0 | 0,4 | 19 | 0 | 970 |
| 24 | Azapa medio | 06-05-2026 05:45 | 13 | 76,7 | 0 | 0 | 19 | 0 | 970 |
| 23 | Azapa medio | 06-05-2026 05:30 | 13,1 | 76,4 | 0 | 0,1 | 19 | 0 | 970 |
| 22 | Azapa medio | 06-05-2026 05:15 | 13,2 | 77,4 | 0 | 0 | 0 | 0 | 970 |
| 21 | Azapa medio | 06-05-2026 05:00 | 13,2 | 75,9 | 0 | 0 | 0 | 0 | 970 |
| 20 | Azapa medio | 06-05-2026 04:45 | 13,1 | 75,8 | 0 | 0 | 0 | 0 | 970 |
| 19 | Azapa medio | 06-05-2026 04:30 | 12,8 | 77,4 | 0 | 0 | 19 | 0 | 970 |
| 18 | Azapa medio | 06-05-2026 04:15 | 12,6 | 76,6 | 0 | 0 | 0 | 0 | 970 |
| 17 | Azapa medio | 06-05-2026 04:00 | 12,8 | 75,6 | 0 | 0 | 0 | 0 | 970 |
| 16 | Azapa medio | 06-05-2026 03:45 | 13 | 73,9 | 0 | 0 | 0 | 0 | 970 |
| 15 | Azapa medio | 06-05-2026 03:30 | 13,5 | 71,7 | 0 | 0 | 0 | 0 | 970 |
| 14 | Azapa medio | 06-05-2026 03:15 | 13,7 | 70,2 | 0 | 0,2 | 19 | 0 | 970 |
| 13 | Azapa medio | 06-05-2026 03:00 | 13,7 | 70 | 0 | 0,3 | 19 | 0 | 970 |
| 12 | Azapa medio | 06-05-2026 02:45 | 13,5 | 71,3 | 0 | 0,5 | 19 | 0 | 970 |
| 11 | Azapa medio | 06-05-2026 02:30 | 13,4 | 72,8 | 0 | 0,5 | 19 | 0 | 970 |
| 10 | Azapa medio | 06-05-2026 02:15 | 13,3 | 73,1 | 0 | 0,2 | 19 | 0 | 970 |
| 9 | Azapa medio | 06-05-2026 02:00 | 13,3 | 73,7 | 0 | 0,1 | 19 | 0 | 970 |
| 8 | Azapa medio | 06-05-2026 01:45 | 13,4 | 73,3 | 0 | 0,5 | 19 | 0 | 971 |
| 7 | Azapa medio | 06-05-2026 01:30 | 13,4 | 72,8 | 0 | 0,6 | 19 | 0 | 971 |
| 6 | Azapa medio | 06-05-2026 01:15 | 13,6 | 71,1 | 0 | 0,2 | 19 | 0 | 970 |
| 5 | Azapa medio | 06-05-2026 01:00 | 14,2 | 69,8 | 0 | 0 | 0 | 0 | 971 |
| 4 | Azapa medio | 06-05-2026 00:45 | 14,9 | 65,7 | 0 | 0 | 0 | 0 | 970 |
| 3 | Azapa medio | 06-05-2026 00:30 | 15,6 | 64,3 | 0 | 0,1 | 20 | 0 | 971 |
| 2 | Azapa medio | 06-05-2026 00:15 | 15,5 | 60 | 0 | 0,6 | 20 | 0 | 970 |
| 1 | Azapa medio | 06-05-2026 00:00 | 15,2 | 62,5 | 0 | 0,5 | 26 | 0 | 971 |